Time;durP1;ratioP1;P1;durP2;ratioP2;P2;SDS_P1;SDS_P2;PMS_P1;PMS_P2;Temp;Humidity;BMP_temperature;BMP_pressure;BME280_temperature;BME280_humidity;BME280_pressure;Samples;Min_cycle;Max_cycle;Signal;HPM_P1;HPM_P2
2022/06/20 00:00:46;;;;;;;;;;;;;;;;;;2081896;28;19948;-45
2022/06/20 00:01:47;;;;;;;;;;;;;;;;;;2082236;28;19921;-46
2022/06/20 00:02:48;;;;;;;;;;;;;;;;;;2081991;28;19921;-44
2022/06/20 00:03:49;;;;;;;;;;;;;;;;;;2081976;28;19952;-44
2022/06/20 00:04:49;;;;;;;;;;;;;;;;;;2081955;28;20285;-46
2022/06/20 00:05:51;;;;;;;;;;;;;;;;;;2082069;28;19952;-45
2022/06/20 00:06:51;;;;;;;;;;;;;;;;;;2081948;28;19944;-45
2022/06/20 00:07:52;;;;;;;;;;;;;;;;;;2082015;28;19925;-45
2022/06/20 00:08:53;;;;;;;;;;;;;;;;;;2081974;28;19960;-45
2022/06/20 00:09:54;;;;;;;;;;;;;;;;;;2082009;28;19960;-45
2022/06/20 00:10:55;;;;;;;;;;;;;;;;;;2082190;28;19975;-45
2022/06/20 00:11:58;;;;;;;;;;;;;;;;;;2090236;28;19920;-45
2022/06/20 00:12:59;;;;;;;;;;;;;;;;;;2090194;28;19925;-45
2022/06/20 00:14:00;;;;;;;;;;;;;;;;;;2090181;28;20397;-45
2022/06/20 00:15:00;;;;;;;;;;;;;;;;;;2090189;28;19928;-45
2022/06/20 00:16:01;;;;;;;;;;;;;;;;;;2090081;28;19928;-46
2022/06/20 00:17:03;;;;;;;;;;;;;;;;;;2090407;28;20325;-45
2022/06/20 00:18:03;;;;;;;;;;;;;;;;;;2090160;28;19925;-45
2022/06/20 00:19:09;;;;;;;;;;;;;;;;;;2090228;28;19921;-46
2022/06/20 00:20:10;;;;;;;;;;;;;;;;;;2090407;28;19996;-45
2022/06/20 00:21:11;;;;;;;;;;;;;;;;;;2090074;28;20380;-45
2022/06/20 00:22:12;;;;;;;;;;;;;;;;;;2090201;28;19920;-43
2022/06/20 00:23:13;;;;;;;;;;;;;;;;;;2090236;28;19921;-43
2022/06/20 00:24:13;;;;;;;;;;;;;;;;;;2090264;28;19926;-44
2022/06/20 00:25:16;;;;;;;;;;;;;;;;;;2090021;28;19928;-43
2022/06/20 00:26:16;;;;;;;;;;;;;;;;;;2090155;28;19920;-43
2022/06/20 00:27:18;;;;;;;;;;;;;;;;;;2090171;28;19952;-43
2022/06/20 00:28:19;;;;;;;;;;;;;;;;;;2090167;28;19951;-42
2022/06/20 00:29:20;;;;;;;;;;;;;;;;;;2090066;28;20378;-42
2022/06/20 00:30:21;;;;;;;;;;;;;;;;;;2089942;28;19920;-43
2022/06/20 00:31:22;;;;;;;;;;;;;;;;;;2090174;28;20448;-42
2022/06/20 00:32:22;;;;;;;;;;;;;;;;;;2090113;28;19928;-42
2022/06/20 00:33:23;;;;;;;;;;;;;;;;;;2090107;28;19921;-43
2022/06/20 00:34:24;;;;;;;;;;;;;;;;;;2089935;28;20341;-42
2022/06/20 00:35:25;;;;;;;;;;;;;;;;;;2090074;28;19931;-43
2022/06/20 00:36:26;;;;;;;;;;;;;;;;;;2089996;28;19994;-43
2022/06/20 00:37:27;;;;;;;;;;;;;;;;;;2090338;28;19921;-45
2022/06/20 00:38:28;;;;;;;;;;;;;;;;;;2090032;28;19957;-45
2022/06/20 00:39:29;;;;;;;;;;;;;;;;;;2090422;28;19925;-42
2022/06/20 00:40:30;;;;;;;;;;;;;;;;;;2090000;28;20023;-43
2022/06/20 00:41:31;;;;;;;;;;;;;;;;;;2089932;28;19966;-43
2022/06/20 00:42:31;;;;;;;;;;;;;;;;;;2090143;28;19971;-42
2022/06/20 00:43:32;;;;;;;;;;;;;;;;;;2090141;28;20336;-42
2022/06/20 00:44:33;;;;;;;;;;;;;;;;;;2090001;28;20074;-43
2022/06/20 00:45:34;;;;;;;;;;;;;;;;;;2089860;28;20066;-42
2022/06/20 00:46:35;;;;;;;;;;;;;;;;;;2090052;28;19967;-42
2022/06/20 00:47:36;;;;;;;;;;;;;;;;;;2090010;28;20358;-42
2022/06/20 00:48:37;;;;;;;;;;;;;;;;;;2089981;28;19974;-43
2022/06/20 00:49:38;;;;;;;;;;;;;;;;;;2089929;28;19974;-42
2022/06/20 00:50:38;;;;;;;;;;;;;;;;;;2090102;28;20397;-42
2022/06/20 00:51:39;;;;;;;;;;;;;;;;;;2089978;28;19924;-43
2022/06/20 00:52:40;;;;;;;;;;;;;;;;;;2089959;28;19995;-42
2022/06/20 00:53:41;;;;;;;;;;;;;;;;;;2089979;28;19920;-42
2022/06/20 00:54:42;;;;;;;;;;;;;;;;;;2090076;28;19963;-42
2022/06/20 00:55:44;;;;;;;;;;;;;;;;;;2089977;28;19956;-43
2022/06/20 00:56:45;;;;;;;;;;;;;;;;;;2089828;28;19927;-42
2022/06/20 00:57:46;;;;;;;;;;;;;;;;;;2089931;28;20039;-42
2022/06/20 00:58:47;;;;;;;;;;;;;;;;;;2089864;28;19964;-42
2022/06/20 00:59:48;;;;;;;;;;;;;;;;;;2090015;28;20015;-43
2022/06/20 01:00:49;;;;;;;;;;;;;;;;;;2089915;28;19928;-43
2022/06/20 01:01:50;;;;;;;;;;;;;;;;;;2089923;28;19956;-43
2022/06/20 01:02:51;;;;;;;;;;;;;;;;;;2089802;28;19921;-42
2022/06/20 01:03:52;;;;;;;;;;;;;;;;;;2089998;28;20011;-42
2022/06/20 01:04:52;;;;;;;;;;;;;;;;;;2089345;28;20007;-43
2022/06/20 01:05:53;;;;;;;;;;;;;;;;;;2089405;28;19967;-43
2022/06/20 01:06:54;;;;;;;;;;;;;;;;;;2089899;28;20321;-43
2022/06/20 01:07:55;;;;;;;;;;;;;;;;;;2089938;28;19963;-41
2022/06/20 01:08:56;;;;;;;;;;;;;;;;;;2089988;28;19920;-42
2022/06/20 01:09:57;;;;;;;;;;;;;;;;;;2089864;28;19943;-42
2022/06/20 01:10:58;;;;;;;;;;;;;;;;;;2088851;28;19966;-43
2022/06/20 01:12:02;;;;;;;;;;;;;;;;;;2081603;28;20007;-43
2022/06/20 01:13:03;;;;;;;;;;;;;;;;;;2081738;28;20011;-43
2022/06/20 01:14:04;;;;;;;;;;;;;;;;;;2081700;28;19921;-42
2022/06/20 01:15:04;;;;;;;;;;;;;;;;;;2081814;28;20015;-43
2022/06/20 01:16:05;;;;;;;;;;;;;;;;;;2081717;28;19952;-43
2022/06/20 01:17:06;;;;;;;;;;;;;;;;;;2081518;28;20428;-42
2022/06/20 01:18:07;;;;;;;;;;;;;;;;;;2081686;28;19921;-43
2022/06/20 01:19:08;;;;;;;;;;;;;;;;;;2081613;28;20407;-43
2022/06/20 01:20:10;;;;;;;;;;;;;;;;;;2081727;28;20668;-42
2022/06/20 01:21:11;;;;;;;;;;;;;;;;;;2081908;28;19968;-45
2022/06/20 01:22:12;;;;;;;;;;;;;;;;;;2081863;28;19921;-42
2022/06/20 01:23:13;;;;;;;;;;;;;;;;;;2081411;28;19968;-43
2022/06/20 01:24:19;;;;;;;;;;;;;;;;;;2081599;28;19921;-43
2022/06/20 01:25:20;;;;;;;;;;;;;;;;;;2081698;28;19988;-44
2022/06/20 01:26:21;;;;;;;;;;;;;;;;;;2083297;28;19921;-45
2022/06/20 01:27:22;;;;;;;;;;;;;;;;;;2090001;28;19999;-43
2022/06/20 01:28:24;;;;;;;;;;;;;;;;;;2089942;28;19975;-44
2022/06/20 01:29:24;;;;;;;;;;;;;;;;;;2089785;28;19920;-45
2022/06/20 01:30:25;;;;;;;;;;;;;;;;;;2089713;28;19925;-45
2022/06/20 01:31:26;;;;;;;;;;;;;;;;;;2089690;28;19920;-45
2022/06/20 01:32:27;;;;;;;;;;;;;;;;;;2089694;28;19967;-44
2022/06/20 01:33:28;;;;;;;;;;;;;;;;;;2089708;28;20015;-45
2022/06/20 01:34:29;;;;;;;;;;;;;;;;;;2089737;28;19930;-46
2022/06/20 01:38:10;;;;;;;;;;;;;;;;;;2090036;28;20133;-45
2022/06/20 01:39:11;;;;;;;;;;;;;;;;;;2089593;28;20362;-45
2022/06/20 01:40:12;;;;;;;;;;;;;;;;;;2089784;28;19947;-44
2022/06/20 01:42:32;;;;;;;;;;;;;;;;;;2089816;28;20007;-41
2022/06/20 01:43:33;;;;;;;;;;;;;;;;;;2089656;28;20350;-43
2022/06/20 01:44:33;;;;;;;;;;;;;;;;;;2089822;28;20015;-45
2022/06/20 01:46:54;;;;;;;;;;;;;;;;;;2089785;28;19920;-45
2022/06/20 01:47:55;;;;;;;;;;;;;;;;;;2089659;28;19921;-45
2022/06/20 01:48:56;;;;;;;;;;;;;;;;;;2089789;28;19920;-44
2022/06/20 01:49:56;;;;;;;;;;;;;;;;;;2089959;28;19947;-43
2022/06/20 01:50:57;;;;;;;;;;;;;;;;;;2089608;28;19983;-42
2022/06/20 01:51:58;;;;;;;;;;;;;;;;;;2089611;28;19972;-42
2022/06/20 01:52:59;;;;;;;;;;;;;;;;;;2089580;28;20492;-42
2022/06/20 01:54:00;;;;;;;;;;;;;;;;;;2089843;28;19920;-45
2022/06/20 01:55:01;;;;;;;;;;;;;;;;;;2089566;28;20043;-45
2022/06/20 01:56:02;;;;;;;;;;;;;;;;;;2089625;28;20039;-47
2022/06/20 01:57:03;;;;;;;;;;;;;;;;;;2089572;28;20381;-45
2022/06/20 01:58:04;;;;;;;;;;;;;;;;;;2090010;28;19956;-46
2022/06/20 01:59:05;;;;;;;;;;;;;;;;;;2089518;28;19921;-45
2022/06/20 02:00:06;;;;;;;;;;;;;;;;;;2089646;28;20007;-44
2022/06/20 02:01:08;;;;;;;;;;;;;;;;;;2089521;28;20373;-45
2022/06/20 02:02:08;;;;;;;;;;;;;;;;;;2089697;28;19927;-43
2022/06/20 02:03:09;;;;;;;;;;;;;;;;;;2089611;28;19963;-43
2022/06/20 02:04:10;;;;;;;;;;;;;;;;;;2089494;28;19921;-42
2022/06/20 02:05:11;;;;;;;;;;;;;;;;;;2089442;28;19921;-42
2022/06/20 02:06:12;;;;;;;;;;;;;;;;;;2089448;28;19920;-43
2022/06/20 02:07:13;;;;;;;;;;;;;;;;;;2089508;28;19921;-43
2022/06/20 02:08:14;;;;;;;;;;;;;;;;;;2089533;28;20484;-42
2022/06/20 02:09:15;;;;;;;;;;;;;;;;;;2089773;28;19976;-45
2022/06/20 02:10:16;;;;;;;;;;;;;;;;;;2089563;28;20027;-45
2022/06/20 02:11:17;;;;;;;;;;;;;;;;;;2086218;28;19929;-45
2022/06/20 02:12:18;;;;;;;;;;;;;;;;;;2081347;28;20016;-44
2022/06/20 02:13:19;;;;;;;;;;;;;;;;;;2081237;28;19921;-45
2022/06/20 02:14:19;;;;;;;;;;;;;;;;;;2081415;28;20020;-45
2022/06/20 02:15:20;;;;;;;;;;;;;;;;;;2081309;28;19967;-45
2022/06/20 02:16:21;;;;;;;;;;;;;;;;;;2081719;28;19921;-43
2022/06/20 02:17:22;;;;;;;;;;;;;;;;;;2082741;28;19921;-42
2022/06/20 02:18:23;;;;;;;;;;;;;;;;;;2082904;28;19928;-42
2022/06/20 02:19:24;;;;;;;;;;;;;;;;;;2082636;28;20013;-42
2022/06/20 02:20:25;;;;;;;;;;;;;;;;;;2082646;28;20011;-42
2022/06/20 02:21:26;;;;;;;;;;;;;;;;;;2082750;28;19968;-43
2022/06/20 02:22:27;;;;;;;;;;;;;;;;;;2083221;28;20099;-42
2022/06/20 02:23:28;;;;;;;;;;;;;;;;;;2090784;28;19933;-42
2022/06/20 02:24:29;;;;;;;;;;;;;;;;;;2090895;28;19920;-43
2022/06/20 02:25:30;;;;;;;;;;;;;;;;;;2090780;28;20289;-43
2022/06/20 02:26:30;;;;;;;;;;;;;;;;;;2091216;28;19920;-42
2022/06/20 02:27:31;;;;;;;;;;;;;;;;;;2091090;28;19927;-42
2022/06/20 02:28:32;;;;;;;;;;;;;;;;;;2091131;28;20229;-42
2022/06/20 02:29:33;;;;;;;;;;;;;;;;;;2090863;28;20370;-42
2022/06/20 02:30:34;;;;;;;;;;;;;;;;;;2090826;28;19975;-42
2022/06/20 02:31:35;;;;;;;;;;;;;;;;;;2090820;28;19920;-43
2022/06/20 02:32:35;;;;;;;;;;;;;;;;;;2091045;28;19920;-42
2022/06/20 02:33:36;;;;;;;;;;;;;;;;;;2090778;28;19947;-42
2022/06/20 02:34:37;;;;;;;;;;;;;;;;;;2090979;28;19921;-42
2022/06/20 02:35:38;;;;;;;;;;;;;;;;;;2090863;28;19920;-42
2022/06/20 02:36:39;;;;;;;;;;;;;;;;;;2090693;28;20007;-42
2022/06/20 02:37:40;;;;;;;;;;;;;;;;;;2090803;28;19971;-43
2022/06/20 02:38:41;;;;;;;;;;;;;;;;;;2090899;28;19959;-43
2022/06/20 02:39:42;;;;;;;;;;;;;;;;;;2090844;28;19921;-42
2022/06/20 02:40:42;;;;;;;;;;;;;;;;;;2090992;28;20226;-42
2022/06/20 02:41:43;;;;;;;;;;;;;;;;;;2090810;28;20370;-44
2022/06/20 02:42:44;;;;;;;;;;;;;;;;;;2091032;28;19931;-42
2022/06/20 02:43:45;;;;;;;;;;;;;;;;;;2090842;28;20386;-42
2022/06/20 02:44:46;;;;;;;;;;;;;;;;;;2090707;28;20345;-42
2022/06/20 02:45:47;;;;;;;;;;;;;;;;;;2090624;28;19924;-42
2022/06/20 02:46:48;;;;;;;;;;;;;;;;;;2090739;28;20016;-42
2022/06/20 02:47:49;;;;;;;;;;;;;;;;;;2090769;28;19928;-42
2022/06/20 02:48:49;;;;;;;;;;;;;;;;;;2090859;28;19921;-42
2022/06/20 02:49:50;;;;;;;;;;;;;;;;;;2090998;28;19921;-43
2022/06/20 02:50:51;;;;;;;;;;;;;;;;;;2090765;28;19971;-43
2022/06/20 02:51:52;;;;;;;;;;;;;;;;;;2090858;28;20003;-43
2022/06/20 02:52:53;;;;;;;;;;;;;;;;;;2091060;28;20011;-42
2022/06/20 02:53:55;;;;;;;;;;;;;;;;;;2090904;28;19920;-45
2022/06/20 02:54:56;;;;;;;;;;;;;;;;;;2090726;28;20020;-44
2022/06/20 02:55:57;;;;;;;;;;;;;;;;;;2090847;28;19970;-43
2022/06/20 02:56:58;;;;;;;;;;;;;;;;;;2090755;28;20011;-42
2022/06/20 02:57:59;;;;;;;;;;;;;;;;;;2090588;28;20465;-42
2022/06/20 02:59:00;;;;;;;;;;;;;;;;;;2090720;28;20400;-42
2022/06/20 03:00:01;;;;;;;;;;;;;;;;;;2090637;28;19959;-43
2022/06/20 03:01:02;;;;;;;;;;;;;;;;;;2090832;28;20401;-42
2022/06/20 03:02:04;;;;;;;;;;;;;;;;;;2090656;28;19921;-43
2022/06/20 03:03:05;;;;;;;;;;;;;;;;;;2090762;28;20003;-42
2022/06/20 03:04:06;;;;;;;;;;;;;;;;;;2090772;28;19921;-42
2022/06/20 03:05:06;;;;;;;;;;;;;;;;;;2090833;28;20420;-42
2022/06/20 03:06:07;;;;;;;;;;;;;;;;;;2090544;28;19978;-43
2022/06/20 03:07:08;;;;;;;;;;;;;;;;;;2090563;28;19927;-43
2022/06/20 03:08:09;;;;;;;;;;;;;;;;;;2090739;28;20182;-42
2022/06/20 03:09:10;;;;;;;;;;;;;;;;;;2090795;28;20253;-44
2022/06/20 03:10:11;;;;;;;;;;;;;;;;;;2090886;28;19967;-43
2022/06/20 03:11:12;;;;;;;;;;;;;;;;;;2087896;28;19948;-42
2022/06/20 03:12:13;;;;;;;;;;;;;;;;;;2082479;28;19928;-42
2022/06/20 03:13:14;;;;;;;;;;;;;;;;;;2082254;28;20333;-43
2022/06/20 03:14:15;;;;;;;;;;;;;;;;;;2082339;28;20019;-43
2022/06/20 03:15:15;;;;;;;;;;;;;;;;;;2082554;28;19921;-44
2022/06/20 03:16:17;;;;;;;;;;;;;;;;;;2082273;28;19921;-42
2022/06/20 03:17:18;;;;;;;;;;;;;;;;;;2082361;28;19921;-42
2022/06/20 03:18:19;;;;;;;;;;;;;;;;;;2082410;28;19973;-42
2022/06/20 03:19:20;;;;;;;;;;;;;;;;;;2088390;28;19974;-45
2022/06/20 03:20:21;;;;;;;;;;;;;;;;;;2090496;28;19920;-45
2022/06/20 03:21:21;;;;;;;;;;;;;;;;;;2091010;28;20393;-46
2022/06/20 03:22:22;;;;;;;;;;;;;;;;;;2090577;28;19921;-45
2022/06/20 03:23:23;;;;;;;;;;;;;;;;;;2090715;28;20011;-45
2022/06/20 03:24:25;;;;;;;;;;;;;;;;;;2090672;28;19921;-45
2022/06/20 03:25:25;;;;;;;;;;;;;;;;;;2090470;28;20055;-44
2022/06/20 03:26:26;;;;;;;;;;;;;;;;;;2090537;28;20015;-45
2022/06/20 03:27:27;;;;;;;;;;;;;;;;;;2090459;28;19921;-45
2022/06/20 03:28:28;;;;;;;;;;;;;;;;;;2089849;28;19943;-44
2022/06/20 03:29:37;;;;;;;;;;;;;;;;;;2090703;28;19935;-46
2022/06/20 03:30:38;;;;;;;;;;;;;;;;;;2090402;28;19932;-47
2022/06/20 03:31:39;;;;;;;;;;;;;;;;;;2090847;28;19925;-42
2022/06/20 03:32:40;;;;;;;;;;;;;;;;;;2090596;28;20146;-42
2022/06/20 03:33:41;;;;;;;;;;;;;;;;;;2090355;28;20499;-43
2022/06/20 03:34:42;;;;;;;;;;;;;;;;;;2090464;28;20019;-42
2022/06/20 03:35:42;;;;;;;;;;;;;;;;;;2090605;28;19927;-42
2022/06/20 03:36:46;;;;;;;;;;;;;;;;;;2090236;28;19920;-42
2022/06/20 03:37:47;;;;;;;;;;;;;;;;;;2090579;28;20019;-42
2022/06/20 03:38:48;;;;;;;;;;;;;;;;;;2090396;28;20016;-42
2022/06/20 03:39:50;;;;;;;;;;;;;;;;;;2090364;28;19927;-42
2022/06/20 03:40:51;;;;;;;;;;;;;;;;;;2090510;28;20341;-42
2022/06/20 03:41:52;;;;;;;;;;;;;;;;;;2090407;28;20055;-42
2022/06/20 03:42:53;;;;;;;;;;;;;;;;;;2090307;28;19975;-42
2022/06/20 03:43:54;;;;;;;;;;;;;;;;;;2090682;28;20011;-45
2022/06/20 03:44:55;;;;;;;;;;;;;;;;;;2090421;28;19927;-46
2022/06/20 03:45:56;;;;;;;;;;;;;;;;;;2090530;28;20006;-44
2022/06/20 03:46:57;;;;;;;;;;;;;;;;;;2090628;28;19921;-45
2022/06/20 03:47:57;;;;;;;;;;;;;;;;;;2090338;28;19928;-45
2022/06/20 03:48:58;;;;;;;;;;;;;;;;;;2090369;28;19944;-45
2022/06/20 03:49:59;;;;;;;;;;;;;;;;;;2090374;28;19924;-45
2022/06/20 03:51:00;;;;;;;;;;;;;;;;;;2090276;28;19925;-45
2022/06/20 03:52:01;;;;;;;;;;;;;;;;;;2090605;28;19920;-43
2022/06/20 03:53:02;;;;;;;;;;;;;;;;;;2090489;28;20019;-43
2022/06/20 03:54:03;;;;;;;;;;;;;;;;;;2090374;28;20018;-43
2022/06/20 03:55:04;;;;;;;;;;;;;;;;;;2090437;28;19959;-42
2022/06/20 03:56:05;;;;;;;;;;;;;;;;;;2090425;28;20299;-43
2022/06/20 03:57:06;;;;;;;;;;;;;;;;;;2090299;28;20407;-42
2022/06/20 03:58:07;;;;;;;;;;;;;;;;;;2090464;28;20003;-45
2022/06/20 03:59:08;;;;;;;;;;;;;;;;;;2090247;28;19920;-44
2022/06/20 04:00:11;;;;;;;;;;;;;;;;;;2090555;28;20434;-42
2022/06/20 04:01:12;;;;;;;;;;;;;;;;;;2090115;28;20337;-43
2022/06/20 04:02:12;;;;;;;;;;;;;;;;;;2090306;28;19928;-43
2022/06/20 04:03:13;;;;;;;;;;;;;;;;;;2090474;28;20011;-42
2022/06/20 04:04:14;;;;;;;;;;;;;;;;;;2090522;28;19927;-42
2022/06/20 04:05:15;;;;;;;;;;;;;;;;;;2090486;28;20289;-44
2022/06/20 04:06:16;;;;;;;;;;;;;;;;;;2090424;28;20385;-43
2022/06/20 04:07:17;;;;;;;;;;;;;;;;;;2090195;28;19921;-43
2022/06/20 04:08:18;;;;;;;;;;;;;;;;;;2090432;28;19921;-44
2022/06/20 04:11:54;;;;;;;;;;;;;;;;;;2080227;28;19999;-44
2022/06/20 04:12:54;;;;;;;;;;;;;;;;;;2082166;28;20016;-45
2022/06/20 04:13:55;;;;;;;;;;;;;;;;;;2082024;28;20420;-45
2022/06/20 04:14:56;;;;;;;;;;;;;;;;;;2082304;28;20445;-45
2022/06/20 04:15:57;;;;;;;;;;;;;;;;;;2090023;28;19921;-44
2022/06/20 04:16:58;;;;;;;;;;;;;;;;;;2090288;28;19962;-44
2022/06/20 04:19:19;;;;;;;;;;;;;;;;;;2090360;28;19920;-45
2022/06/20 04:20:19;;;;;;;;;;;;;;;;;;2090478;28;20016;-45
2022/06/20 04:21:21;;;;;;;;;;;;;;;;;;2090142;28;19927;-45
2022/06/20 04:22:21;;;;;;;;;;;;;;;;;;2090458;28;19970;-45
2022/06/20 04:23:22;;;;;;;;;;;;;;;;;;2090113;28;20411;-45
2022/06/20 04:24:23;;;;;;;;;;;;;;;;;;2090139;28;20013;-45
2022/06/20 04:25:24;;;;;;;;;;;;;;;;;;2090011;28;19969;-46
2022/06/20 04:26:25;;;;;;;;;;;;;;;;;;2090043;28;20370;-44
2022/06/20 04:27:26;;;;;;;;;;;;;;;;;;2090236;28;19925;-45
2022/06/20 04:28:27;;;;;;;;;;;;;;;;;;2090072;28;20020;-46
2022/06/20 04:29:27;;;;;;;;;;;;;;;;;;2090139;28;19921;-45
2022/06/20 04:30:29;;;;;;;;;;;;;;;;;;2090310;28;19912;-44
2022/06/20 04:31:30;;;;;;;;;;;;;;;;;;2090057;28;19925;-45
2022/06/20 04:32:31;;;;;;;;;;;;;;;;;;2089906;28;19971;-45
2022/06/20 04:33:31;;;;;;;;;;;;;;;;;;2090370;28;19959;-42
2022/06/20 04:34:32;;;;;;;;;;;;;;;;;;2090284;28;20360;-43
2022/06/20 04:35:33;;;;;;;;;;;;;;;;;;2090134;28;20012;-43
2022/06/20 04:36:34;;;;;;;;;;;;;;;;;;2089918;28;19943;-43
2022/06/20 04:37:35;;;;;;;;;;;;;;;;;;2090384;28;19924;-42
2022/06/20 04:38:36;;;;;;;;;;;;;;;;;;2090099;28;20259;-43
2022/06/20 04:39:39;;;;;;;;;;;;;;;;;;2089798;28;19999;-45
2022/06/20 04:40:39;;;;;;;;;;;;;;;;;;2089506;28;20016;-45
2022/06/20 04:41:40;;;;;;;;;;;;;;;;;;2089842;28;19986;-45
2022/06/20 04:42:41;;;;;;;;;;;;;;;;;;2090291;28;20011;-42
2022/06/20 04:43:42;;;;;;;;;;;;;;;;;;2090254;28;20405;-45
2022/06/20 04:44:43;;;;;;;;;;;;;;;;;;2090244;28;19925;-45
2022/06/20 04:45:44;;;;;;;;;;;;;;;;;;2089991;28;19921;-45
2022/06/20 04:46:45;;;;;;;;;;;;;;;;;;2090289;28;19921;-47
2022/06/20 04:47:46;;;;;;;;;;;;;;;;;;2089913;28;20396;-45
2022/06/20 04:48:47;;;;;;;;;;;;;;;;;;2090153;28;19925;-43
2022/06/20 04:49:48;;;;;;;;;;;;;;;;;;2090314;28;19920;-43
2022/06/20 04:50:52;;;;;;;;;;;;;;;;;;2089940;28;19921;-43
2022/06/20 04:51:53;;;;;;;;;;;;;;;;;;2090336;28;19920;-45
2022/06/20 04:52:54;;;;;;;;;;;;;;;;;;2089942;28;20389;-47
2022/06/20 04:53:55;;;;;;;;;;;;;;;;;;2089945;28;19927;-44
2022/06/20 04:54:56;;;;;;;;;;;;;;;;;;2090451;28;19921;-44
2022/06/20 04:55:57;;;;;;;;;;;;;;;;;;2090065;28;20251;-44
2022/06/20 04:56:58;;;;;;;;;;;;;;;;;;2089868;28;20382;-44
2022/06/20 04:57:59;;;;;;;;;;;;;;;;;;2090048;28;19921;-44
2022/06/20 04:59:00;;;;;;;;;;;;;;;;;;2089910;28;19921;-43
2022/06/20 05:00:01;;;;;;;;;;;;;;;;;;2090025;28;19963;-43
2022/06/20 05:01:02;;;;;;;;;;;;;;;;;;2089830;28;20006;-42
2022/06/20 05:02:03;;;;;;;;;;;;;;;;;;2089812;28;19921;-43
2022/06/20 05:03:04;;;;;;;;;;;;;;;;;;2089963;28;19924;-44
2022/06/20 05:04:05;;;;;;;;;;;;;;;;;;2089896;28;20366;-43
2022/06/20 05:05:06;;;;;;;;;;;;;;;;;;2090022;28;19921;-42
2022/06/20 05:06:07;;;;;;;;;;;;;;;;;;2089927;28;19920;-43
2022/06/20 05:07:08;;;;;;;;;;;;;;;;;;2089900;28;19920;-44
2022/06/20 05:08:09;;;;;;;;;;;;;;;;;;2089899;28;19936;-44
2022/06/20 05:09:09;;;;;;;;;;;;;;;;;;2089850;28;20320;-43
2022/06/20 05:10:11;;;;;;;;;;;;;;;;;;2089817;28;19928;-43
2022/06/20 05:11:12;;;;;;;;;;;;;;;;;;2087386;28;19921;-43
2022/06/20 05:12:14;;;;;;;;;;;;;;;;;;2089809;28;19920;-43
2022/06/20 05:13:15;;;;;;;;;;;;;;;;;;2089825;28;20011;-43
2022/06/20 05:14:16;;;;;;;;;;;;;;;;;;2090043;28;19921;-45
2022/06/20 05:15:23;;;;;;;;;;;;;;;;;;2089828;28;20018;-45
2022/06/20 05:16:24;;;;;;;;;;;;;;;;;;2089895;28;20012;-45
2022/06/20 05:17:25;;;;;;;;;;;;;;;;;;2089683;28;20522;-46
2022/06/20 05:18:26;;;;;;;;;;;;;;;;;;2090110;28;19924;-45
2022/06/20 05:19:27;;;;;;;;;;;;;;;;;;2089975;28;19920;-45
2022/06/20 05:20:28;;;;;;;;;;;;;;;;;;2090258;28;20356;-43
2022/06/20 05:21:29;;;;;;;;;;;;;;;;;;2089704;28;19982;-42
2022/06/20 05:22:30;;;;;;;;;;;;;;;;;;2089909;28;20040;-43
2022/06/20 05:23:31;;;;;;;;;;;;;;;;;;2089792;28;20286;-43
2022/06/20 05:24:32;;;;;;;;;;;;;;;;;;2089747;28;19921;-43
2022/06/20 05:25:33;;;;;;;;;;;;;;;;;;2089661;28;20389;-43
2022/06/20 05:26:34;;;;;;;;;;;;;;;;;;2089692;28;19927;-43
2022/06/20 05:27:35;;;;;;;;;;;;;;;;;;2089873;28;19921;-43
2022/06/20 05:28:35;;;;;;;;;;;;;;;;;;2089704;28;20389;-43
2022/06/20 05:29:36;;;;;;;;;;;;;;;;;;2089769;28;19956;-43
2022/06/20 05:30:37;;;;;;;;;;;;;;;;;;2089909;28;20023;-44
2022/06/20 05:31:38;;;;;;;;;;;;;;;;;;2089782;28;19921;-43
2022/06/20 05:32:39;;;;;;;;;;;;;;;;;;2089607;28;20366;-43
2022/06/20 05:33:41;;;;;;;;;;;;;;;;;;2090042;28;19924;-46
2022/06/20 05:34:41;;;;;;;;;;;;;;;;;;2089917;28;19943;-43
2022/06/20 05:35:47;;;;;;;;;;;;;;;;;;2089564;28;20006;-43
2022/06/20 05:36:49;;;;;;;;;;;;;;;;;;2090229;28;19948;-43
2022/06/20 05:37:50;;;;;;;;;;;;;;;;;;2089834;28;20110;-42
2022/06/20 05:38:51;;;;;;;;;;;;;;;;;;2089795;28;20328;-43
2022/06/20 05:39:52;;;;;;;;;;;;;;;;;;2090134;28;19960;-42
2022/06/20 05:40:53;;;;;;;;;;;;;;;;;;2089696;28;20015;-43
2022/06/20 05:41:58;;;;;;;;;;;;;;;;;;2090210;28;19921;-45
2022/06/20 05:43:00;;;;;;;;;;;;;;;;;;2089647;28;20394;-45
2022/06/20 05:44:00;;;;;;;;;;;;;;;;;;2090133;28;19925;-45
2022/06/20 05:45:01;;;;;;;;;;;;;;;;;;2089513;28;19975;-45
2022/06/20 05:46:03;;;;;;;;;;;;;;;;;;2089522;28;19920;-46
2022/06/20 05:47:04;;;;;;;;;;;;;;;;;;2089825;28;19920;-43
2022/06/20 05:48:05;;;;;;;;;;;;;;;;;;2089691;28;19920;-43
2022/06/20 05:49:06;;;;;;;;;;;;;;;;;;2089755;28;19986;-45
2022/06/20 05:50:07;;;;;;;;;;;;;;;;;;2089735;28;19931;-46
2022/06/20 05:51:08;;;;;;;;;;;;;;;;;;2089376;28;19928;-46
2022/06/20 05:52:09;;;;;;;;;;;;;;;;;;2089692;28;19966;-47
2022/06/20 05:53:09;;;;;;;;;;;;;;;;;;2089915;28;20054;-44
2022/06/20 05:54:10;;;;;;;;;;;;;;;;;;2089613;28;20419;-43
2022/06/20 05:55:11;;;;;;;;;;;;;;;;;;2089794;28;19920;-43
2022/06/20 05:56:12;;;;;;;;;;;;;;;;;;2089854;28;19928;-46
2022/06/20 05:57:13;;;;;;;;;;;;;;;;;;2089593;28;19920;-44
2022/06/20 05:58:14;;;;;;;;;;;;;;;;;;2089503;28;19920;-43
2022/06/20 05:59:15;;;;;;;;;;;;;;;;;;2089682;28;20288;-42
2022/06/20 06:00:16;;;;;;;;;;;;;;;;;;2089905;28;19974;-42
2022/06/20 06:01:17;;;;;;;;;;;;;;;;;;2089584;28;19925;-42
2022/06/20 06:02:21;;;;;;;;;;;;;;;;;;2089545;28;19978;-42
2022/06/20 06:03:21;;;;;;;;;;;;;;;;;;2089781;28;19928;-42
2022/06/20 06:04:22;;;;;;;;;;;;;;;;;;2089770;28;19920;-47
2022/06/20 06:05:23;;;;;;;;;;;;;;;;;;2090075;28;19921;-42
2022/06/20 06:06:24;;;;;;;;;;;;;;;;;;2089398;28;19959;-42
2022/06/20 06:07:25;;;;;;;;;;;;;;;;;;2089517;28;19927;-42
2022/06/20 06:08:26;;;;;;;;;;;;;;;;;;2089680;28;20289;-43
2022/06/20 06:09:47;;;;;;;;;;;;;;;;;;2089446;28;19924;-42
2022/06/20 06:10:48;;;;;;;;;;;;;;;;;;2089556;28;19960;-42
2022/06/20 06:11:49;;;;;;;;;;;;;;;;;;2081584;28;20295;-42
2022/06/20 06:12:51;;;;;;;;;;;;;;;;;;2081629;28;20012;-45
2022/06/20 06:13:51;;;;;;;;;;;;;;;;;;2081421;28;20402;-45
2022/06/20 06:14:52;;;;;;;;;;;;;;;;;;2081235;28;19921;-44
2022/06/20 06:17:12;;;;;;;;;;;;;;;;;;2081375;28;19921;-42
2022/06/20 06:18:33;;;;;;;;;;;;;;;;;;2081250;28;19971;-42
2022/06/20 06:19:35;;;;;;;;;;;;;;;;;;2081352;28;19984;-44
2022/06/20 06:20:36;;;;;;;;;;;;;;;;;;2081208;28;20062;-44
2022/06/20 06:21:37;;;;;;;;;;;;;;;;;;2081319;28;19975;-45
2022/06/20 06:22:38;;;;;;;;;;;;;;;;;;2081230;28;19929;-45
2022/06/20 06:23:39;;;;;;;;;;;;;;;;;;2081330;28;19964;-46
2022/06/20 06:24:40;;;;;;;;;;;;;;;;;;2081459;28;19947;-46
2022/06/20 06:25:40;;;;;;;;;;;;;;;;;;2081929;28;19975;-45
2022/06/20 06:26:42;;;;;;;;;;;;;;;;;;2081390;28;20370;-45
2022/06/20 06:27:43;;;;;;;;;;;;;;;;;;2081366;28;19990;-42
2022/06/20 06:28:44;;;;;;;;;;;;;;;;;;2081360;28;19921;-42
2022/06/20 06:29:44;;;;;;;;;;;;;;;;;;2081171;28;19928;-42
2022/06/20 06:30:45;;;;;;;;;;;;;;;;;;2081077;28;19983;-42
2022/06/20 06:31:46;;;;;;;;;;;;;;;;;;2081223;28;19928;-42
2022/06/20 06:32:47;;;;;;;;;;;;;;;;;;2081366;28;19932;-42
2022/06/20 06:33:49;;;;;;;;;;;;;;;;;;2081195;28;19952;-42
2022/06/20 06:34:50;;;;;;;;;;;;;;;;;;2081607;28;20449;-45
2022/06/20 06:35:51;;;;;;;;;;;;;;;;;;2081293;28;19920;-43
2022/06/20 06:36:52;;;;;;;;;;;;;;;;;;2081223;28;19948;-45
2022/06/20 06:37:53;;;;;;;;;;;;;;;;;;2081477;28;19928;-42
2022/06/20 06:38:54;;;;;;;;;;;;;;;;;;2081282;28;20075;-42
2022/06/20 06:39:54;;;;;;;;;;;;;;;;;;2081283;28;19921;-42
2022/06/20 06:40:56;;;;;;;;;;;;;;;;;;2081291;28;19963;-45
2022/06/20 06:41:57;;;;;;;;;;;;;;;;;;2081456;28;20023;-43
2022/06/20 06:42:58;;;;;;;;;;;;;;;;;;2081082;28;19921;-42
2022/06/20 06:43:59;;;;;;;;;;;;;;;;;;2081085;28;20003;-42
2022/06/20 06:45:00;;;;;;;;;;;;;;;;;;2081241;28;20028;-46
2022/06/20 06:46:02;;;;;;;;;;;;;;;;;;2080869;28;19967;-45
2022/06/20 06:47:03;;;;;;;;;;;;;;;;;;2081258;28;19928;-47
2022/06/20 06:48:04;;;;;;;;;;;;;;;;;;2081255;28;19921;-43
2022/06/20 06:49:05;;;;;;;;;;;;;;;;;;2081335;28;19920;-46
2022/06/20 06:50:06;;;;;;;;;;;;;;;;;;2081699;28;19921;-43
2022/06/20 06:51:07;;;;;;;;;;;;;;;;;;2081036;28;19948;-44
2022/06/20 06:52:08;;;;;;;;;;;;;;;;;;2081375;28;19936;-43
2022/06/20 06:53:09;;;;;;;;;;;;;;;;;;2081400;28;19944;-45
2022/06/20 06:54:10;;;;;;;;;;;;;;;;;;2081114;28;20374;-46
2022/06/20 06:55:10;;;;;;;;;;;;;;;;;;2081333;28;20146;-45
2022/06/20 06:56:11;;;;;;;;;;;;;;;;;;2081554;28;20558;-44
2022/06/20 06:57:12;;;;;;;;;;;;;;;;;;2081148;28;19963;-43
2022/06/20 06:58:14;;;;;;;;;;;;;;;;;;2081091;28;20343;-43
2022/06/20 06:59:15;;;;;;;;;;;;;;;;;;2081247;28;20050;-43
2022/06/20 07:00:16;;;;;;;;;;;;;;;;;;2081548;28;19991;-46
2022/06/20 07:01:17;;;;;;;;;;;;;;;;;;2080965;28;19991;-48
2022/06/20 07:02:17;;;;;;;;;;;;;;;;;;2081160;28;19960;-45
2022/06/20 07:03:18;;;;;;;;;;;;;;;;;;2081236;28;19921;-45
2022/06/20 07:04:19;;;;;;;;;;;;;;;;;;2087919;28;20396;-46
2022/06/20 07:05:20;;;;;;;;;;;;;;;;;;2090809;28;20012;-46
2022/06/20 07:06:21;;;;;;;;;;;;;;;;;;2091023;28;19921;-44
2022/06/20 07:07:33;;;;;;;;;;;;;;;;;;2090675;28;19924;-43
2022/06/20 07:08:34;;;;;;;;;;;;;;;;;;2090576;28;20390;-43